CYKQ

Waskaganish Airport

Waskaganish, Quebec, Canada
METAR CYKQ 222000Z 35012KT 15SM SCT240 BKN300 22/11 A3012 RMK CI3CS4 SLP201 DENSITY ALT 700FT
Observed Flight Rules
Jul-22 @ 20:00 UTC (20 minutes ago) Visual Flight Rules
Wind Visibility Clouds
350° at 12 knots 15 miles
  • Scattered at 24,000' AGL
  • Broken at 30,000' AGL
Temperatures Readings
Current 22°C / 72°F
Dewpoint 11°C / 52°F
Humidity 50%
Altimeter 30.12" Hg
Pressure 1020.1 hPa
Elevation 23
METAR CYKQ 222000Z 35012KT 15SM SCT240 BKN300 22/11 A3012 RMK CI3CS4 SLP201 DENSITY ALT 700FT
Observed Flight Rules
Jul-22 @ 20:00 UTC
(20 minutes ago)
VFR
Wind Visibility
350° at 12 knots 15 miles
Clouds
  • Scattered at 24,000' AGL
  • Broken at 30,000' AGL
Temperature Dewpoint
22°C / 72°F 11°C / 52°F
Humidity Altimeter Pressure
50% 30.12" Hg 1020.1 hPa